sensor_id;sensor_type;location;lat;lon;timestamp;P1;durP1;ratioP1;P2;durP2;ratioP2
44832;SDS011;30569;51.252;9.830;2022-11-12T00:02:15;9.70;;;3.20;;
44832;SDS011;30569;51.252;9.830;2022-11-12T00:04:41;7.03;;;3.50;;
44832;SDS011;30569;51.252;9.830;2022-11-12T00:07:06;8.37;;;3.40;;
44832;SDS011;30569;51.252;9.830;2022-11-12T00:09:32;5.80;;;3.50;;
44832;SDS011;30569;51.252;9.830;2022-11-12T00:11:58;5.63;;;2.90;;
44832;SDS011;30569;51.252;9.830;2022-11-12T00:14:24;6.67;;;3.03;;
44832;SDS011;30569;51.252;9.830;2022-11-12T00:16:49;5.20;;;2.97;;
44832;SDS011;30569;51.252;9.830;2022-11-12T00:19:15;4.93;;;2.90;;
44832;SDS011;30569;51.252;9.830;2022-11-12T00:21:41;6.67;;;3.20;;
44832;SDS011;30569;51.252;9.830;2022-11-12T00:24:06;6.77;;;3.07;;
44832;SDS011;30569;51.252;9.830;2022-11-12T00:26:32;5.63;;;3.20;;
44832;SDS011;30569;51.252;9.830;2022-11-12T00:28:57;8.87;;;3.70;;
44832;SDS011;30569;51.252;9.830;2022-11-12T00:31:23;7.23;;;3.47;;
44832;SDS011;30569;51.252;9.830;2022-11-12T00:33:48;7.87;;;3.70;;
44832;SDS011;30569;51.252;9.830;2022-11-12T00:36:14;6.83;;;3.90;;
44832;SDS011;30569;51.252;9.830;2022-11-12T00:38:40;6.47;;;3.70;;
44832;SDS011;30569;51.252;9.830;2022-11-12T00:41:05;6.30;;;3.50;;
44832;SDS011;30569;51.252;9.830;2022-11-12T00:43:31;6.13;;;3.40;;
44832;SDS011;30569;51.252;9.830;2022-11-12T00:45:57;5.67;;;2.90;;
44832;SDS011;30569;51.252;9.830;2022-11-12T00:48:22;5.23;;;2.70;;
44832;SDS011;30569;51.252;9.830;2022-11-12T00:50:48;4.73;;;2.83;;
44832;SDS011;30569;51.252;9.830;2022-11-12T00:53:13;4.53;;;2.57;;
44832;SDS011;30569;51.252;9.830;2022-11-12T00:55:39;5.87;;;3.70;;
44832;SDS011;30569;51.252;9.830;2022-11-12T00:58:04;7.40;;;3.00;;
44832;SDS011;30569;51.252;9.830;2022-11-12T01:00:30;7.63;;;3.60;;
44832;SDS011;30569;51.252;9.830;2022-11-12T01:02:55;5.43;;;3.23;;
44832;SDS011;30569;51.252;9.830;2022-11-12T01:05:21;5.43;;;3.10;;
44832;SDS011;30569;51.252;9.830;2022-11-12T01:07:47;5.27;;;3.43;;
44832;SDS011;30569;51.252;9.830;2022-11-12T01:10:12;5.07;;;3.13;;
44832;SDS011;30569;51.252;9.830;2022-11-12T01:12:38;7.17;;;3.33;;
44832;SDS011;30569;51.252;9.830;2022-11-12T01:15:04;6.50;;;3.60;;
44832;SDS011;30569;51.252;9.830;2022-11-12T01:17:31;8.03;;;3.23;;
44832;SDS011;30569;51.252;9.830;2022-11-12T01:19:57;6.87;;;3.30;;
44832;SDS011;30569;51.252;9.830;2022-11-12T01:22:23;10.00;;;3.67;;
44832;SDS011;30569;51.252;9.830;2022-11-12T01:24:49;6.00;;;3.40;;
44832;SDS011;30569;51.252;9.830;2022-11-12T01:27:14;7.53;;;3.37;;
44832;SDS011;30569;51.252;9.830;2022-11-12T01:29:40;6.00;;;3.40;;
44832;SDS011;30569;51.252;9.830;2022-11-12T01:32:06;6.13;;;3.20;;
44832;SDS011;30569;51.252;9.830;2022-11-12T01:34:32;5.37;;;3.30;;
44832;SDS011;30569;51.252;9.830;2022-11-12T01:36:57;6.97;;;3.00;;
44832;SDS011;30569;51.252;9.830;2022-11-12T01:39:23;8.20;;;3.03;;
44832;SDS011;30569;51.252;9.830;2022-11-12T01:41:49;5.93;;;3.10;;
44832;SDS011;30569;51.252;9.830;2022-11-12T01:44:19;8.53;;;3.47;;
44832;SDS011;30569;51.252;9.830;2022-11-12T01:47:10;5.73;;;2.73;;
44832;SDS011;30569;51.252;9.830;2022-11-12T01:49:50;7.40;;;3.20;;
44832;SDS011;30569;51.252;9.830;2022-11-12T01:52:36;6.23;;;3.93;;
44832;SDS011;30569;51.252;9.830;2022-11-12T01:55:11;8.83;;;4.07;;
44832;SDS011;30569;51.252;9.830;2022-11-12T01:57:42;6.57;;;3.80;;
44832;SDS011;30569;51.252;9.830;2022-11-12T02:00:13;5.97;;;3.27;;
44832;SDS011;30569;51.252;9.830;2022-11-12T02:02:39;6.30;;;3.83;;
44832;SDS011;30569;51.252;9.830;2022-11-12T02:05:07;5.10;;;3.33;;
44832;SDS011;30569;51.252;9.830;2022-11-12T02:07:35;5.33;;;3.23;;
44832;SDS011;30569;51.252;9.830;2022-11-12T02:10:03;6.00;;;3.70;;
44832;SDS011;30569;51.252;9.830;2022-11-12T02:12:29;8.60;;;3.60;;
44832;SDS011;30569;51.252;9.830;2022-11-12T02:15:14;5.67;;;3.47;;
44832;SDS011;30569;51.252;9.830;2022-11-12T02:17:40;6.53;;;3.50;;
44832;SDS011;30569;51.252;9.830;2022-11-12T02:20:07;5.03;;;3.13;;
44832;SDS011;30569;51.252;9.830;2022-11-12T02:22:35;4.77;;;2.80;;
44832;SDS011;30569;51.252;9.830;2022-11-12T02:25:00;6.83;;;3.30;;
44832;SDS011;30569;51.252;9.830;2022-11-12T02:27:26;5.40;;;3.10;;
44832;SDS011;30569;51.252;9.830;2022-11-12T02:29:52;7.97;;;3.90;;
44832;SDS011;30569;51.252;9.830;2022-11-12T02:32:17;4.73;;;2.80;;
44832;SDS011;30569;51.252;9.830;2022-11-12T02:34:44;6.27;;;2.90;;
44832;SDS011;30569;51.252;9.830;2022-11-12T02:37:09;6.03;;;3.10;;
44832;SDS011;30569;51.252;9.830;2022-11-12T02:39:35;4.93;;;2.87;;
44832;SDS011;30569;51.252;9.830;2022-11-12T02:42:00;7.93;;;3.33;;
44832;SDS011;30569;51.252;9.830;2022-11-12T02:44:26;5.13;;;3.23;;
44832;SDS011;30569;51.252;9.830;2022-11-12T02:46:52;6.53;;;3.07;;
44832;SDS011;30569;51.252;9.830;2022-11-12T02:49:18;6.50;;;3.27;;
44832;SDS011;30569;51.252;9.830;2022-11-12T02:51:43;5.37;;;3.30;;
44832;SDS011;30569;51.252;9.830;2022-11-12T02:54:09;5.30;;;3.00;;
44832;SDS011;30569;51.252;9.830;2022-11-12T02:56:34;6.87;;;3.93;;
44832;SDS011;30569;51.252;9.830;2022-11-12T02:59:00;6.80;;;3.03;;
44832;SDS011;30569;51.252;9.830;2022-11-12T03:01:26;5.37;;;2.87;;
44832;SDS011;30569;51.252;9.830;2022-11-12T03:03:52;5.53;;;3.30;;
44832;SDS011;30569;51.252;9.830;2022-11-12T03:06:17;6.13;;;3.20;;
44832;SDS011;30569;51.252;9.830;2022-11-12T03:08:43;5.43;;;3.20;;
44832;SDS011;30569;51.252;9.830;2022-11-12T03:11:10;8.70;;;3.00;;
44832;SDS011;30569;51.252;9.830;2022-11-12T03:13:37;4.73;;;3.00;;
44832;SDS011;30569;51.252;9.830;2022-11-12T03:16:03;9.50;;;3.40;;
44832;SDS011;30569;51.252;9.830;2022-11-12T03:18:29;6.90;;;3.90;;
44832;SDS011;30569;51.252;9.830;2022-11-12T03:20:54;8.47;;;3.90;;
44832;SDS011;30569;51.252;9.830;2022-11-12T03:23:20;6.17;;;3.13;;
44832;SDS011;30569;51.252;9.830;2022-11-12T03:25:46;6.57;;;3.53;;
44832;SDS011;30569;51.252;9.830;2022-11-12T03:28:13;5.97;;;2.93;;
44832;SDS011;30569;51.252;9.830;2022-11-12T03:30:40;5.13;;;2.80;;
44832;SDS011;30569;51.252;9.830;2022-11-12T03:33:07;6.27;;;2.67;;
44832;SDS011;30569;51.252;9.830;2022-11-12T03:35:35;5.50;;;3.27;;
44832;SDS011;30569;51.252;9.830;2022-11-12T03:38:02;5.70;;;2.67;;
44832;SDS011;30569;51.252;9.830;2022-11-12T03:40:28;5.80;;;2.80;;
44832;SDS011;30569;51.252;9.830;2022-11-12T03:42:54;3.90;;;2.27;;
44832;SDS011;30569;51.252;9.830;2022-11-12T03:45:21;3.90;;;2.30;;
44832;SDS011;30569;51.252;9.830;2022-11-12T03:47:49;4.60;;;2.63;;
44832;SDS011;30569;51.252;9.830;2022-11-12T03:50:17;4.90;;;2.60;;
44832;SDS011;30569;51.252;9.830;2022-11-12T03:52:44;6.40;;;2.63;;
44832;SDS011;30569;51.252;9.830;2022-11-12T03:55:12;4.33;;;2.10;;
44832;SDS011;30569;51.252;9.830;2022-11-12T03:57:39;6.63;;;2.40;;
44832;SDS011;30569;51.252;9.830;2022-11-12T04:00:05;4.90;;;2.60;;
44832;SDS011;30569;51.252;9.830;2022-11-12T04:02:32;5.77;;;2.90;;
44832;SDS011;30569;51.252;9.830;2022-11-12T04:04:58;5.30;;;2.70;;
44832;SDS011;30569;51.252;9.830;2022-11-12T04:07:42;4.90;;;2.70;;
44832;SDS011;30569;51.252;9.830;2022-11-12T04:12:53;5.00;;;2.67;;
44832;SDS011;30569;51.252;9.830;2022-11-12T04:15:38;6.47;;;2.43;;
44832;SDS011;30569;51.252;9.830;2022-11-12T04:18:03;7.50;;;2.33;;
44832;SDS011;30569;51.252;9.830;2022-11-12T04:20:47;4.82;;;2.90;;
44832;SDS011;30569;51.252;9.830;2022-11-12T04:25:57;7.57;;;2.87;;
44832;SDS011;30569;51.252;9.830;2022-11-12T04:31:27;4.57;;;2.70;;
44832;SDS011;30569;51.252;9.830;2022-11-12T04:33:52;6.77;;;2.80;;
44832;SDS011;30569;51.252;9.830;2022-11-12T04:36:18;7.57;;;3.30;;
44832;SDS011;30569;51.252;9.830;2022-11-12T04:38:43;4.97;;;2.87;;
44832;SDS011;30569;51.252;9.830;2022-11-12T04:41:09;5.70;;;3.00;;
44832;SDS011;30569;51.252;9.830;2022-11-12T04:43:53;5.65;;;3.03;;
44832;SDS011;30569;51.252;9.830;2022-11-12T04:46:37;4.78;;;2.85;;
44832;SDS011;30569;51.252;9.830;2022-11-12T04:49:02;6.53;;;2.60;;
44832;SDS011;30569;51.252;9.830;2022-11-12T04:51:28;5.37;;;2.80;;
44832;SDS011;30569;51.252;9.830;2022-11-12T04:56:38;4.87;;;2.50;;
44832;SDS011;30569;51.252;9.830;2022-11-12T04:59:04;7.33;;;2.80;;
44832;SDS011;30569;51.252;9.830;2022-11-12T05:01:29;8.10;;;3.47;;
44832;SDS011;30569;51.252;9.830;2022-11-12T05:03:55;5.30;;;3.20;;
44832;SDS011;30569;51.252;9.830;2022-11-12T05:06:20;5.37;;;2.97;;
44832;SDS011;30569;51.252;9.830;2022-11-12T05:09:04;7.50;;;3.67;;
44832;SDS011;30569;51.252;9.830;2022-11-12T05:11:30;5.27;;;3.43;;
44832;SDS011;30569;51.252;9.830;2022-11-12T05:13:55;6.93;;;4.03;;
44832;SDS011;30569;51.252;9.830;2022-11-12T05:16:21;7.47;;;3.87;;
44832;SDS011;30569;51.252;9.830;2022-11-12T05:18:46;6.10;;;3.50;;
44832;SDS011;30569;51.252;9.830;2022-11-12T05:21:12;6.40;;;3.57;;
44832;SDS011;30569;51.252;9.830;2022-11-12T05:24:16;4.93;;;3.20;;
44832;SDS011;30569;51.252;9.830;2022-11-12T05:26:41;6.23;;;4.07;;
44832;SDS011;30569;51.252;9.830;2022-11-12T05:29:07;10.40;;;5.97;;
44832;SDS011;30569;51.252;9.830;2022-11-12T05:31:33;9.63;;;5.90;;
44832;SDS011;30569;51.252;9.830;2022-11-12T05:33:58;8.30;;;5.20;;
44832;SDS011;30569;51.252;9.830;2022-11-12T05:36:24;10.00;;;4.97;;
44832;SDS011;30569;51.252;9.830;2022-11-12T05:38:49;8.57;;;4.67;;
44832;SDS011;30569;51.252;9.830;2022-11-12T05:41:15;7.93;;;5.00;;
44832;SDS011;30569;51.252;9.830;2022-11-12T05:43:41;9.03;;;5.00;;
44832;SDS011;30569;51.252;9.830;2022-11-12T05:46:06;8.80;;;5.27;;
44832;SDS011;30569;51.252;9.830;2022-11-12T05:48:32;11.00;;;4.83;;
44832;SDS011;30569;51.252;9.830;2022-11-12T05:50:57;8.80;;;4.67;;
44832;SDS011;30569;51.252;9.830;2022-11-12T05:53:23;11.83;;;5.13;;
44832;SDS011;30569;51.252;9.830;2022-11-12T05:55:48;10.67;;;4.83;;
44832;SDS011;30569;51.252;9.830;2022-11-12T05:58:14;11.47;;;5.53;;
44832;SDS011;30569;51.252;9.830;2022-11-12T06:00:40;8.40;;;4.97;;
44832;SDS011;30569;51.252;9.830;2022-11-12T06:03:07;8.37;;;4.70;;
44832;SDS011;30569;51.252;9.830;2022-11-12T06:05:33;11.10;;;5.90;;
44832;SDS011;30569;51.252;9.830;2022-11-12T06:07:59;10.93;;;6.83;;
44832;SDS011;30569;51.252;9.830;2022-11-12T06:10:25;8.80;;;5.93;;
44832;SDS011;30569;51.252;9.830;2022-11-12T06:12:51;8.60;;;5.60;;
44832;SDS011;30569;51.252;9.830;2022-11-12T06:15:17;9.93;;;5.50;;
44832;SDS011;30569;51.252;9.830;2022-11-12T06:17:43;13.60;;;5.57;;
44832;SDS011;30569;51.252;9.830;2022-11-12T06:20:09;8.33;;;5.03;;
44832;SDS011;30569;51.252;9.830;2022-11-12T06:22:35;10.10;;;5.87;;
44832;SDS011;30569;51.252;9.830;2022-11-12T06:25:02;12.30;;;5.37;;
44832;SDS011;30569;51.252;9.830;2022-11-12T06:27:28;10.80;;;6.00;;
44832;SDS011;30569;51.252;9.830;2022-11-12T06:29:53;8.50;;;5.40;;
44832;SDS011;30569;51.252;9.830;2022-11-12T06:32:19;8.50;;;5.30;;
44832;SDS011;30569;51.252;9.830;2022-11-12T06:34:45;8.47;;;5.67;;
44832;SDS011;30569;51.252;9.830;2022-11-12T06:37:11;11.63;;;5.90;;
44832;SDS011;30569;51.252;9.830;2022-11-12T06:39:37;10.20;;;5.80;;
44832;SDS011;30569;51.252;9.830;2022-11-12T06:42:03;9.33;;;5.90;;
44832;SDS011;30569;51.252;9.830;2022-11-12T06:44:29;9.67;;;6.27;;
44832;SDS011;30569;51.252;9.830;2022-11-12T06:46:55;8.40;;;5.43;;
44832;SDS011;30569;51.252;9.830;2022-11-12T06:49:21;10.47;;;6.23;;
44832;SDS011;30569;51.252;9.830;2022-11-12T06:51:48;10.67;;;6.30;;
44832;SDS011;30569;51.252;9.830;2022-11-12T06:54:14;9.60;;;5.47;;
44832;SDS011;30569;51.252;9.830;2022-11-12T06:56:40;9.43;;;5.83;;
44832;SDS011;30569;51.252;9.830;2022-11-12T06:59:06;9.80;;;5.90;;
44832;SDS011;30569;51.252;9.830;2022-11-12T07:01:32;9.37;;;6.00;;
44832;SDS011;30569;51.252;9.830;2022-11-12T07:03:57;9.43;;;5.50;;
44832;SDS011;30569;51.252;9.830;2022-11-12T07:06:23;11.70;;;7.00;;
44832;SDS011;30569;51.252;9.830;2022-11-12T07:08:49;13.53;;;7.00;;
44832;SDS011;30569;51.252;9.830;2022-11-12T07:11:20;15.17;;;9.43;;
44832;SDS011;30569;51.252;9.830;2022-11-12T07:13:45;15.10;;;9.10;;
44832;SDS011;30569;51.252;9.830;2022-11-12T07:16:12;15.77;;;9.30;;
44832;SDS011;30569;51.252;9.830;2022-11-12T07:18:42;17.07;;;10.33;;
44832;SDS011;30569;51.252;9.830;2022-11-12T07:21:10;17.33;;;9.10;;
44832;SDS011;30569;51.252;9.830;2022-11-12T07:23:38;14.33;;;9.50;;
44832;SDS011;30569;51.252;9.830;2022-11-12T07:26:05;16.13;;;10.73;;
44832;SDS011;30569;51.252;9.830;2022-11-12T07:28:32;15.10;;;9.80;;
44832;SDS011;30569;51.252;9.830;2022-11-12T07:31:02;19.87;;;11.43;;
44832;SDS011;30569;51.252;9.830;2022-11-12T07:33:30;18.23;;;10.23;;
44832;SDS011;30569;51.252;9.830;2022-11-12T07:35:57;20.33;;;10.50;;
44832;SDS011;30569;51.252;9.830;2022-11-12T07:38:28;26.57;;;15.93;;
44832;SDS011;30569;51.252;9.830;2022-11-12T07:40:58;19.00;;;12.60;;
44832;SDS011;30569;51.252;9.830;2022-11-12T07:43:32;19.97;;;11.67;;
44832;SDS011;30569;51.252;9.830;2022-11-12T07:45:59;18.30;;;11.60;;
44832;SDS011;30569;51.252;9.830;2022-11-12T07:48:31;22.53;;;13.10;;
44832;SDS011;30569;51.252;9.830;2022-11-12T07:53:40;17.43;;;10.33;;
44832;SDS011;30569;51.252;9.830;2022-11-12T07:56:11;18.43;;;11.57;;
44832;SDS011;30569;51.252;9.830;2022-11-12T07:58:38;18.30;;;11.10;;
44832;SDS011;30569;51.252;9.830;2022-11-12T08:01:08;18.85;;;11.02;;
44832;SDS011;30569;51.252;9.830;2022-11-12T08:03:33;18.10;;;11.20;;
44832;SDS011;30569;51.252;9.830;2022-11-12T08:06:00;15.77;;;10.33;;
44832;SDS011;30569;51.252;9.830;2022-11-12T08:08:26;19.90;;;11.53;;
44832;SDS011;30569;51.252;9.830;2022-11-12T08:10:55;17.67;;;11.40;;
44832;SDS011;30569;51.252;9.830;2022-11-12T08:13:23;21.00;;;12.07;;
44832;SDS011;30569;51.252;9.830;2022-11-12T08:15:49;22.02;;;13.07;;
44832;SDS011;30569;51.252;9.830;2022-11-12T08:18:16;18.80;;;12.27;;
44832;SDS011;30569;51.252;9.830;2022-11-12T08:20:42;27.45;;;15.80;;
44832;SDS011;30569;51.252;9.830;2022-11-12T08:23:08;35.47;;;23.80;;
44832;SDS011;30569;51.252;9.830;2022-11-12T08:25:34;35.42;;;21.92;;
44832;SDS011;30569;51.252;9.830;2022-11-12T08:28:00;17.80;;;11.15;;
44832;SDS011;30569;51.252;9.830;2022-11-12T08:30:26;15.38;;;9.18;;
44832;SDS011;30569;51.252;9.830;2022-11-12T08:32:56;15.13;;;7.88;;
44832;SDS011;30569;51.252;9.830;2022-11-12T08:35:23;12.50;;;6.75;;
44832;SDS011;30569;51.252;9.830;2022-11-12T08:37:56;9.50;;;6.50;;
44832;SDS011;30569;51.252;9.830;2022-11-12T08:40:26;12.90;;;6.70;;
44832;SDS011;30569;51.252;9.830;2022-11-12T08:42:59;10.38;;;6.03;;
44832;SDS011;30569;51.252;9.830;2022-11-12T08:45:28;10.65;;;6.57;;
44832;SDS011;30569;51.252;9.830;2022-11-12T08:48:04;13.27;;;6.53;;
44832;SDS011;30569;51.252;9.830;2022-11-12T08:50:32;10.52;;;6.90;;
44832;SDS011;30569;51.252;9.830;2022-11-12T08:53:08;11.68;;;6.70;;
44832;SDS011;30569;51.252;9.830;2022-11-12T08:55:35;13.05;;;6.95;;
44832;SDS011;30569;51.252;9.830;2022-11-12T08:58:02;10.20;;;6.38;;
44832;SDS011;30569;51.252;9.830;2022-11-12T09:00:34;10.25;;;7.05;;
44832;SDS011;30569;51.252;9.830;2022-11-12T09:03:05;12.25;;;7.32;;
44832;SDS011;30569;51.252;9.830;2022-11-12T09:05:33;12.18;;;7.78;;
44832;SDS011;30569;51.252;9.830;2022-11-12T09:10:48;15.90;;;9.70;;
44832;SDS011;30569;51.252;9.830;2022-11-12T09:13:14;12.38;;;8.32;;
44832;SDS011;30569;51.252;9.830;2022-11-12T09:15:42;15.40;;;10.27;;
44832;SDS011;30569;51.252;9.830;2022-11-12T09:18:10;13.15;;;8.77;;
44832;SDS011;30569;51.252;9.830;2022-11-12T09:20:37;14.57;;;9.43;;
44832;SDS011;30569;51.252;9.830;2022-11-12T09:23:07;12.60;;;8.10;;
44832;SDS011;30569;51.252;9.830;2022-11-12T09:25:38;11.68;;;8.10;;
44832;SDS011;30569;51.252;9.830;2022-11-12T09:28:25;13.52;;;6.97;;
44832;SDS011;30569;51.252;9.830;2022-11-12T09:30:52;11.50;;;7.22;;
44832;SDS011;30569;51.252;9.830;2022-11-12T09:33:20;10.70;;;7.07;;
44832;SDS011;30569;51.252;9.830;2022-11-12T09:35:54;12.88;;;7.00;;
44832;SDS011;30569;51.252;9.830;2022-11-12T09:38:20;16.15;;;11.48;;
44832;SDS011;30569;51.252;9.830;2022-11-12T09:43:25;17.52;;;11.90;;
44832;SDS011;30569;51.252;9.830;2022-11-12T09:48:53;41.40;;;24.75;;
44832;SDS011;30569;51.252;9.830;2022-11-12T09:51:36;22.50;;;14.32;;
44832;SDS011;30569;51.252;9.830;2022-11-12T09:56:38;17.25;;;10.63;;
44832;SDS011;30569;51.252;9.830;2022-11-12T09:59:08;16.85;;;11.70;;
44832;SDS011;30569;51.252;9.830;2022-11-12T10:04:17;24.13;;;15.73;;
44832;SDS011;30569;51.252;9.830;2022-11-12T10:06:47;24.10;;;15.70;;
44832;SDS011;30569;51.252;9.830;2022-11-12T10:09:27;21.27;;;14.85;;
44832;SDS011;30569;51.252;9.830;2022-11-12T10:12:18;21.02;;;14.10;;
44832;SDS011;30569;51.252;9.830;2022-11-12T10:17:54;16.13;;;12.07;;
44832;SDS011;30569;51.252;9.830;2022-11-12T10:20:45;13.20;;;9.10;;
44832;SDS011;30569;51.252;9.830;2022-11-12T10:23:28;15.60;;;9.43;;
44832;SDS011;30569;51.252;9.830;2022-11-12T10:26:07;9.75;;;5.97;;
44832;SDS011;30569;51.252;9.830;2022-11-12T10:28:46;4.95;;;2.92;;
44832;SDS011;30569;51.252;9.830;2022-11-12T10:31:16;4.95;;;2.70;;
44832;SDS011;30569;51.252;9.830;2022-11-12T10:33:43;4.32;;;2.10;;
44832;SDS011;30569;51.252;9.830;2022-11-12T10:38:51;4.18;;;1.98;;
44832;SDS011;30569;51.252;9.830;2022-11-12T10:41:22;4.35;;;1.80;;
44832;SDS011;30569;51.252;9.830;2022-11-12T10:43:52;5.75;;;2.10;;
44832;SDS011;30569;51.252;9.830;2022-11-12T10:48:52;4.78;;;1.73;;
44832;SDS011;30569;51.252;9.830;2022-11-12T10:51:24;4.50;;;2.58;;
44832;SDS011;30569;51.252;9.830;2022-11-12T10:53:55;4.68;;;1.98;;
44832;SDS011;30569;51.252;9.830;2022-11-12T10:56:25;4.18;;;2.10;;
44832;SDS011;30569;51.252;9.830;2022-11-12T11:01:44;4.10;;;2.10;;
44832;SDS011;30569;51.252;9.830;2022-11-12T11:07:02;3.95;;;2.15;;
44832;SDS011;30569;51.252;9.830;2022-11-12T11:09:30;6.85;;;2.38;;
44832;SDS011;30569;51.252;9.830;2022-11-12T11:11:57;4.25;;;1.75;;
44832;SDS011;30569;51.252;9.830;2022-11-12T11:14:27;4.00;;;1.90;;
44832;SDS011;30569;51.252;9.830;2022-11-12T11:16:57;4.30;;;1.93;;
44832;SDS011;30569;51.252;9.830;2022-11-12T11:22:06;5.30;;;2.40;;
44832;SDS011;30569;51.252;9.830;2022-11-12T11:25:03;5.53;;;2.40;;
44832;SDS011;30569;51.252;9.830;2022-11-12T11:30:40;6.60;;;2.08;;
44832;SDS011;30569;51.252;9.830;2022-11-12T11:39:41;7.90;;;3.85;;
44832;SDS011;30569;51.252;9.830;2022-11-12T11:42:48;7.03;;;4.30;;
44832;SDS011;30569;51.252;9.830;2022-11-12T11:56:31;8.30;;;4.75;;
44832;SDS011;30569;51.252;9.830;2022-11-12T12:01:22;9.50;;;4.75;;
44832;SDS011;30569;51.252;9.830;2022-11-12T12:20:40;8.60;;;3.83;;
44832;SDS011;30569;51.252;9.830;2022-11-12T12:26:30;11.20;;;4.90;;
44832;SDS011;30569;51.252;9.830;2022-11-12T12:29:17;6.78;;;4.20;;
44832;SDS011;30569;51.252;9.830;2022-11-12T12:31:53;9.48;;;3.70;;
44832;SDS011;30569;51.252;9.830;2022-11-12T12:34:32;6.65;;;3.95;;
44832;SDS011;30569;51.252;9.830;2022-11-12T12:37:09;9.80;;;4.57;;
44832;SDS011;30569;51.252;9.830;2022-11-12T12:42:19;7.78;;;4.40;;
44832;SDS011;30569;51.252;9.830;2022-11-12T12:45:29;7.68;;;3.85;;
44832;SDS011;30569;51.252;9.830;2022-11-12T12:47:53;7.63;;;4.35;;
44832;SDS011;30569;51.252;9.830;2022-11-12T12:50:20;12.73;;;6.00;;
44832;SDS011;30569;51.252;9.830;2022-11-12T12:55:33;9.57;;;5.75;;
44832;SDS011;30569;51.252;9.830;2022-11-12T12:57:59;13.18;;;8.23;;
44832;SDS011;30569;51.252;9.830;2022-11-12T13:00:33;14.38;;;6.80;;
44832;SDS011;30569;51.252;9.830;2022-11-12T13:03:04;15.95;;;8.82;;
44832;SDS011;30569;51.252;9.830;2022-11-12T13:05:30;12.27;;;7.15;;
44832;SDS011;30569;51.252;9.830;2022-11-12T13:08:00;13.10;;;7.32;;
44832;SDS011;30569;51.252;9.830;2022-11-12T13:15:49;15.20;;;8.68;;
44832;SDS011;30569;51.252;9.830;2022-11-12T13:23:53;12.82;;;7.15;;
44832;SDS011;30569;51.252;9.830;2022-11-12T13:35:08;10.63;;;6.53;;
44832;SDS011;30569;51.252;9.830;2022-11-12T13:45:52;9.23;;;4.35;;
44832;SDS011;30569;51.252;9.830;2022-11-12T13:48:41;9.18;;;4.07;;
44832;SDS011;30569;51.252;9.830;2022-11-12T13:51:11;10.20;;;4.65;;
44832;SDS011;30569;51.252;9.830;2022-11-12T13:53:41;7.53;;;3.92;;
44832;SDS011;30569;51.252;9.830;2022-11-12T13:56:08;9.25;;;4.50;;
44832;SDS011;30569;51.252;9.830;2022-11-12T13:58:35;12.07;;;4.03;;
44832;SDS011;30569;51.252;9.830;2022-11-12T14:01:04;6.90;;;4.20;;
44832;SDS011;30569;51.252;9.830;2022-11-12T14:03:31;8.32;;;4.40;;
44832;SDS011;30569;51.252;9.830;2022-11-12T14:12:37;6.95;;;4.03;;
44832;SDS011;30569;51.252;9.830;2022-11-12T14:20:52;10.23;;;4.93;;
44832;SDS011;30569;51.252;9.830;2022-11-12T14:23:19;7.18;;;4.38;;
44832;SDS011;30569;51.252;9.830;2022-11-12T14:25:46;7.40;;;5.13;;
44832;SDS011;30569;51.252;9.830;2022-11-12T14:28:27;9.65;;;5.38;;
44832;SDS011;30569;51.252;9.830;2022-11-12T14:30:54;10.18;;;5.75;;
44832;SDS011;30569;51.252;9.830;2022-11-12T14:33:22;10.38;;;5.70;;
44832;SDS011;30569;51.252;9.830;2022-11-12T14:35:50;11.93;;;6.07;;
44832;SDS011;30569;51.252;9.830;2022-11-12T14:38:22;8.95;;;6.15;;
44832;SDS011;30569;51.252;9.830;2022-11-12T14:40:54;6.85;;;4.55;;
44832;SDS011;30569;51.252;9.830;2022-11-12T14:46:01;7.03;;;3.30;;
44832;SDS011;30569;51.252;9.830;2022-11-12T14:48:29;5.90;;;2.58;;
44832;SDS011;30569;51.252;9.830;2022-11-12T14:51:11;6.63;;;2.30;;
44832;SDS011;30569;51.252;9.830;2022-11-12T14:53:40;4.70;;;2.35;;
44832;SDS011;30569;51.252;9.830;2022-11-12T14:56:13;5.35;;;2.38;;
44832;SDS011;30569;51.252;9.830;2022-11-12T14:58:47;4.30;;;2.45;;
44832;SDS011;30569;51.252;9.830;2022-11-12T15:01:20;5.00;;;2.53;;
44832;SDS011;30569;51.252;9.830;2022-11-12T15:03:46;4.65;;;2.42;;
44832;SDS011;30569;51.252;9.830;2022-11-12T15:06:12;8.15;;;2.47;;
44832;SDS011;30569;51.252;9.830;2022-11-12T15:08:43;6.22;;;2.65;;
44832;SDS011;30569;51.252;9.830;2022-11-12T15:11:21;5.63;;;3.30;;
44832;SDS011;30569;51.252;9.830;2022-11-12T15:13:48;5.03;;;3.20;;
44832;SDS011;30569;51.252;9.830;2022-11-12T15:16:25;7.45;;;3.75;;
44832;SDS011;30569;51.252;9.830;2022-11-12T15:19:02;8.98;;;4.00;;
44832;SDS011;30569;51.252;9.830;2022-11-12T15:21:28;8.10;;;3.78;;
44832;SDS011;30569;51.252;9.830;2022-11-12T15:26:39;6.03;;;3.55;;
44832;SDS011;30569;51.252;9.830;2022-11-12T15:31:41;5.50;;;3.20;;
44832;SDS011;30569;51.252;9.830;2022-11-12T15:36:48;6.22;;;3.40;;
44832;SDS011;30569;51.252;9.830;2022-11-12T15:39:14;9.82;;;2.95;;
44832;SDS011;30569;51.252;9.830;2022-11-12T15:41:39;6.55;;;2.47;;
44832;SDS011;30569;51.252;9.830;2022-11-12T15:44:07;4.45;;;2.60;;
44832;SDS011;30569;51.252;9.830;2022-11-12T15:46:34;4.90;;;2.47;;
44832;SDS011;30569;51.252;9.830;2022-11-12T15:49:00;5.32;;;2.70;;
44832;SDS011;30569;51.252;9.830;2022-11-12T15:51:26;8.88;;;2.78;;
44832;SDS011;30569;51.252;9.830;2022-11-12T15:53:51;5.28;;;2.70;;
44832;SDS011;30569;51.252;9.830;2022-11-12T15:56:17;5.05;;;3.10;;
44832;SDS011;30569;51.252;9.830;2022-11-12T15:58:45;5.72;;;2.70;;
44832;SDS011;30569;51.252;9.830;2022-11-12T16:01:11;4.20;;;2.10;;
44832;SDS011;30569;51.252;9.830;2022-11-12T16:03:37;5.97;;;2.00;;
44832;SDS011;30569;51.252;9.830;2022-11-12T16:06:03;4.18;;;2.20;;
44832;SDS011;30569;51.252;9.830;2022-11-12T16:08:29;3.60;;;2.20;;
44832;SDS011;30569;51.252;9.830;2022-11-12T16:10:55;4.57;;;1.90;;
44832;SDS011;30569;51.252;9.830;2022-11-12T16:13:30;5.00;;;2.10;;
44832;SDS011;30569;51.252;9.830;2022-11-12T16:16:05;4.07;;;2.15;;
44832;SDS011;30569;51.252;9.830;2022-11-12T16:18:32;3.70;;;1.77;;
44832;SDS011;30569;51.252;9.830;2022-11-12T16:20:57;5.40;;;1.80;;
44832;SDS011;30569;51.252;9.830;2022-11-12T16:23:23;3.70;;;1.98;;
44832;SDS011;30569;51.252;9.830;2022-11-12T16:25:49;3.72;;;1.90;;
44832;SDS011;30569;51.252;9.830;2022-11-12T16:28:15;3.87;;;2.13;;
44832;SDS011;30569;51.252;9.830;2022-11-12T16:30:43;5.03;;;1.80;;
44832;SDS011;30569;51.252;9.830;2022-11-12T16:33:11;10.50;;;2.13;;
44832;SDS011;30569;51.252;9.830;2022-11-12T16:35:37;5.03;;;2.10;;
44832;SDS011;30569;51.252;9.830;2022-11-12T16:38:14;3.65;;;1.80;;
44832;SDS011;30569;51.252;9.830;2022-11-12T16:40:41;3.77;;;1.97;;
44832;SDS011;30569;51.252;9.830;2022-11-12T16:43:08;3.70;;;2.00;;
44832;SDS011;30569;51.252;9.830;2022-11-12T16:45:34;3.53;;;2.03;;
44832;SDS011;30569;51.252;9.830;2022-11-12T16:48:05;4.13;;;2.20;;
44832;SDS011;30569;51.252;9.830;2022-11-12T16:50:37;4.23;;;2.03;;
44832;SDS011;30569;51.252;9.830;2022-11-12T16:53:03;7.33;;;2.40;;
44832;SDS011;30569;51.252;9.830;2022-11-12T16:55:29;6.53;;;2.73;;
44832;SDS011;30569;51.252;9.830;2022-11-12T16:57:55;4.43;;;2.50;;
44832;SDS011;30569;51.252;9.830;2022-11-12T17:00:21;4.13;;;2.17;;
44832;SDS011;30569;51.252;9.830;2022-11-12T17:02:47;6.57;;;2.57;;
44832;SDS011;30569;51.252;9.830;2022-11-12T17:05:14;4.10;;;2.10;;
44832;SDS011;30569;51.252;9.830;2022-11-12T17:07:41;4.17;;;2.10;;
44832;SDS011;30569;51.252;9.830;2022-11-12T17:10:07;3.90;;;2.20;;
44832;SDS011;30569;51.252;9.830;2022-11-12T17:12:33;3.90;;;2.17;;
44832;SDS011;30569;51.252;9.830;2022-11-12T17:14:59;3.87;;;2.30;;
44832;SDS011;30569;51.252;9.830;2022-11-12T17:17:24;3.80;;;1.90;;